sensor_id;sensor_type;location;lat;lon;timestamp;temperature;humidity
52656;SHT85;35474;51.032;6.998;2023-04-25T00:00:33;6.67;81.86
52656;SHT85;35474;51.032;6.998;2023-04-25T00:02:59;6.60;82.18
52656;SHT85;35474;51.032;6.998;2023-04-25T00:05:26;6.47;82.32
52656;SHT85;35474;51.032;6.998;2023-04-25T00:07:53;6.64;82.49
52656;SHT85;35474;51.032;6.998;2023-04-25T00:10:20;6.58;82.55
52656;SHT85;35474;51.032;6.998;2023-04-25T00:12:46;6.47;82.69
52656;SHT85;35474;51.032;6.998;2023-04-25T00:15:13;6.40;82.97
52656;SHT85;35474;51.032;6.998;2023-04-25T00:17:40;6.35;82.95
52656;SHT85;35474;51.032;6.998;2023-04-25T00:20:07;6.34;82.97
52656;SHT85;35474;51.032;6.998;2023-04-25T00:22:37;6.58;83.13
52656;SHT85;35474;51.032;6.998;2023-04-25T00:25:04;6.60;82.83
52656;SHT85;35474;51.032;6.998;2023-04-25T00:27:32;6.56;82.48
52656;SHT85;35474;51.032;6.998;2023-04-25T00:29:58;6.55;82.54
52656;SHT85;35474;51.032;6.998;2023-04-25T00:32:25;6.48;82.79
52656;SHT85;35474;51.032;6.998;2023-04-25T00:34:52;6.52;82.96
52656;SHT85;35474;51.032;6.998;2023-04-25T00:37:18;6.42;82.70
52656;SHT85;35474;51.032;6.998;2023-04-25T00:39:46;6.38;83.17
52656;SHT85;35474;51.032;6.998;2023-04-25T00:42:12;6.38;83.11
52656;SHT85;35474;51.032;6.998;2023-04-25T00:44:41;6.38;83.10
52656;SHT85;35474;51.032;6.998;2023-04-25T00:47:09;6.41;83.25
52656;SHT85;35474;51.032;6.998;2023-04-25T00:49:37;6.41;82.98
52656;SHT85;35474;51.032;6.998;2023-04-25T00:52:03;6.35;83.29
52656;SHT85;35474;51.032;6.998;2023-04-25T00:54:30;6.51;83.09
52656;SHT85;35474;51.032;6.998;2023-04-25T00:56:57;6.58;82.80
52656;SHT85;35474;51.032;6.998;2023-04-25T00:59:24;6.72;82.46
52656;SHT85;35474;51.032;6.998;2023-04-25T01:01:51;6.86;82.17
52656;SHT85;35474;51.032;6.998;2023-04-25T01:04:18;6.99;81.65
52656;SHT85;35474;51.032;6.998;2023-04-25T01:06:45;7.07;81.03
52656;SHT85;35474;51.032;6.998;2023-04-25T01:09:12;7.05;80.88
52656;SHT85;35474;51.032;6.998;2023-04-25T01:11:39;7.17;80.51
52656;SHT85;35474;51.032;6.998;2023-04-25T01:14:06;7.23;80.27
52656;SHT85;35474;51.032;6.998;2023-04-25T01:16:32;7.22;80.53
52656;SHT85;35474;51.032;6.998;2023-04-25T01:18:59;7.28;80.66
52656;SHT85;35474;51.032;6.998;2023-04-25T01:21:26;7.26;80.48
52656;SHT85;35474;51.032;6.998;2023-04-25T01:23:54;7.26;80.24
52656;SHT85;35474;51.032;6.998;2023-04-25T01:26:20;7.13;80.44
52656;SHT85;35474;51.032;6.998;2023-04-25T01:28:47;7.23;80.79
52656;SHT85;35474;51.032;6.998;2023-04-25T01:31:15;7.09;80.83
52656;SHT85;35474;51.032;6.998;2023-04-25T01:33:42;7.07;81.05
52656;SHT85;35474;51.032;6.998;2023-04-25T01:36:09;7.06;81.15
52656;SHT85;35474;51.032;6.998;2023-04-25T01:38:36;7.07;81.42
52656;SHT85;35474;51.032;6.998;2023-04-25T01:41:02;6.97;81.55
52656;SHT85;35474;51.032;6.998;2023-04-25T01:43:29;6.97;81.83
52656;SHT85;35474;51.032;6.998;2023-04-25T01:45:55;6.93;81.99
52656;SHT85;35474;51.032;6.998;2023-04-25T01:48:23;6.85;82.14
52656;SHT85;35474;51.032;6.998;2023-04-25T01:50:49;6.89;82.15
52656;SHT85;35474;51.032;6.998;2023-04-25T01:53:16;6.82;82.37
52656;SHT85;35474;51.032;6.998;2023-04-25T01:55:42;6.76;82.20
52656;SHT85;35474;51.032;6.998;2023-04-25T01:58:09;6.74;82.43
52656;SHT85;35474;51.032;6.998;2023-04-25T02:00:38;6.75;82.05
52656;SHT85;35474;51.032;6.998;2023-04-25T02:03:05;6.81;81.90
52656;SHT85;35474;51.032;6.998;2023-04-25T02:05:36;6.78;81.93
52656;SHT85;35474;51.032;6.998;2023-04-25T02:08:07;6.81;81.92
52656;SHT85;35474;51.032;6.998;2023-04-25T02:10:34;6.69;82.43
52656;SHT85;35474;51.032;6.998;2023-04-25T02:13:02;6.69;82.74
52656;SHT85;35474;51.032;6.998;2023-04-25T02:15:30;6.71;82.52
52656;SHT85;35474;51.032;6.998;2023-04-25T02:17:57;6.67;82.55
52656;SHT85;35474;51.032;6.998;2023-04-25T02:20:24;6.78;81.79
52656;SHT85;35474;51.032;6.998;2023-04-25T02:22:51;6.75;81.87
52656;SHT85;35474;51.032;6.998;2023-04-25T02:25:18;6.75;81.82
52656;SHT85;35474;51.032;6.998;2023-04-25T02:27:46;6.81;81.93
52656;SHT85;35474;51.032;6.998;2023-04-25T02:30:13;6.82;82.07
52656;SHT85;35474;51.032;6.998;2023-04-25T02:32:40;6.89;82.00
52656;SHT85;35474;51.032;6.998;2023-04-25T02:35:07;7.13;81.56
52656;SHT85;35474;51.032;6.998;2023-04-25T02:37:34;7.07;81.48
52656;SHT85;35474;51.032;6.998;2023-04-25T02:40:02;6.95;81.70
52656;SHT85;35474;51.032;6.998;2023-04-25T02:42:30;7.00;81.93
52656;SHT85;35474;51.032;6.998;2023-04-25T02:44:56;7.05;81.07
52656;SHT85;35474;51.032;6.998;2023-04-25T02:47:23;7.10;80.24
52656;SHT85;35474;51.032;6.998;2023-04-25T02:49:50;7.10;80.16
52656;SHT85;35474;51.032;6.998;2023-04-25T02:52:16;7.10;80.20
52656;SHT85;35474;51.032;6.998;2023-04-25T02:54:43;7.14;80.40
52656;SHT85;35474;51.032;6.998;2023-04-25T02:57:09;7.07;80.27
52656;SHT85;35474;51.032;6.998;2023-04-25T02:59:36;7.19;80.30
52656;SHT85;35474;51.032;6.998;2023-04-25T03:02:02;7.13;79.92
52656;SHT85;35474;51.032;6.998;2023-04-25T03:04:29;7.17;79.88
52656;SHT85;35474;51.032;6.998;2023-04-25T03:06:55;7.19;79.90
52656;SHT85;35474;51.032;6.998;2023-04-25T03:09:22;7.24;79.72
52656;SHT85;35474;51.032;6.998;2023-04-25T03:11:48;7.22;79.43
52656;SHT85;35474;51.032;6.998;2023-04-25T03:14:14;7.19;79.91
52656;SHT85;35474;51.032;6.998;2023-04-25T03:16:41;7.09;79.74
52656;SHT85;35474;51.032;6.998;2023-04-25T03:19:07;7.07;79.71
52656;SHT85;35474;51.032;6.998;2023-04-25T03:21:34;7.06;79.67
52656;SHT85;35474;51.032;6.998;2023-04-25T03:24:02;7.02;79.91
52656;SHT85;35474;51.032;6.998;2023-04-25T03:26:30;6.93;80.13
52656;SHT85;35474;51.032;6.998;2023-04-25T03:28:57;6.92;80.10
52656;SHT85;35474;51.032;6.998;2023-04-25T03:31:23;7.00;79.92
52656;SHT85;35474;51.032;6.998;2023-04-25T03:33:50;7.00;79.92
52656;SHT85;35474;51.032;6.998;2023-04-25T03:36:17;7.02;79.88
52656;SHT85;35474;51.032;6.998;2023-04-25T03:38:43;7.03;79.87
52656;SHT85;35474;51.032;6.998;2023-04-25T03:41:09;7.02;79.90
52656;SHT85;35474;51.032;6.998;2023-04-25T03:43:36;7.09;79.85
52656;SHT85;35474;51.032;6.998;2023-04-25T03:46:02;7.16;79.54
52656;SHT85;35474;51.032;6.998;2023-04-25T03:48:29;7.24;79.52
52656;SHT85;35474;51.032;6.998;2023-04-25T03:50:55;7.27;79.58
52656;SHT85;35474;51.032;6.998;2023-04-25T03:53:22;7.34;79.31
52656;SHT85;35474;51.032;6.998;2023-04-25T03:55:48;7.27;79.77
52656;SHT85;35474;51.032;6.998;2023-04-25T03:58:15;7.22;80.18
52656;SHT85;35474;51.032;6.998;2023-04-25T04:00:41;7.14;80.59
52656;SHT85;35474;51.032;6.998;2023-04-25T04:03:07;7.20;80.73
52656;SHT85;35474;51.032;6.998;2023-04-25T04:05:34;7.09;80.90
52656;SHT85;35474;51.032;6.998;2023-04-25T04:08:01;7.09;81.21
52656;SHT85;35474;51.032;6.998;2023-04-25T04:10:27;7.19;81.20
52656;SHT85;35474;51.032;6.998;2023-04-25T04:12:54;7.14;81.35
52656;SHT85;35474;51.032;6.998;2023-04-25T04:15:21;7.16;81.54
52656;SHT85;35474;51.032;6.998;2023-04-25T04:17:48;7.16;81.52
52656;SHT85;35474;51.032;6.998;2023-04-25T04:20:15;7.22;81.63
52656;SHT85;35474;51.032;6.998;2023-04-25T04:22:41;7.23;81.91
52656;SHT85;35474;51.032;6.998;2023-04-25T04:25:08;7.35;81.46
52656;SHT85;35474;51.032;6.998;2023-04-25T04:27:35;7.40;81.28
52656;SHT85;35474;51.032;6.998;2023-04-25T04:30:02;7.37;81.29
52656;SHT85;35474;51.032;6.998;2023-04-25T04:32:29;7.35;81.39
52656;SHT85;35474;51.032;6.998;2023-04-25T04:34:56;7.26;81.92
52656;SHT85;35474;51.032;6.998;2023-04-25T04:37:23;7.35;81.57
52656;SHT85;35474;51.032;6.998;2023-04-25T04:39:50;7.33;81.80
52656;SHT85;35474;51.032;6.998;2023-04-25T04:42:18;7.19;82.20
52656;SHT85;35474;51.032;6.998;2023-04-25T04:44:44;7.22;82.33
52656;SHT85;35474;51.032;6.998;2023-04-25T04:47:11;7.37;82.20
52656;SHT85;35474;51.032;6.998;2023-04-25T04:49:40;7.43;81.81
52656;SHT85;35474;51.032;6.998;2023-04-25T04:52:06;7.30;82.11
52656;SHT85;35474;51.032;6.998;2023-04-25T04:54:32;7.34;82.28
52656;SHT85;35474;51.032;6.998;2023-04-25T04:57:01;7.23;82.56
52656;SHT85;35474;51.032;6.998;2023-04-25T04:59:27;7.27;83.03
52656;SHT85;35474;51.032;6.998;2023-04-25T05:01:54;7.27;82.94
52656;SHT85;35474;51.032;6.998;2023-04-25T05:04:20;7.44;82.69
52656;SHT85;35474;51.032;6.998;2023-04-25T05:06:47;7.46;82.52
52656;SHT85;35474;51.032;6.998;2023-04-25T05:09:14;7.50;81.99
52656;SHT85;35474;51.032;6.998;2023-04-25T05:11:41;7.42;81.59
52656;SHT85;35474;51.032;6.998;2023-04-25T05:14:07;7.40;81.71
52656;SHT85;35474;51.032;6.998;2023-04-25T05:16:34;7.37;81.41
52656;SHT85;35474;51.032;6.998;2023-04-25T05:19:01;7.23;82.07
52656;SHT85;35474;51.032;6.998;2023-04-25T05:21:27;7.07;82.42
52656;SHT85;35474;51.032;6.998;2023-04-25T05:23:54;6.97;82.74
52656;SHT85;35474;51.032;6.998;2023-04-25T05:26:21;7.05;82.60
52656;SHT85;35474;51.032;6.998;2023-04-25T05:28:48;7.05;82.68
52656;SHT85;35474;51.032;6.998;2023-04-25T05:31:14;7.00;82.86
52656;SHT85;35474;51.032;6.998;2023-04-25T05:33:41;7.02;83.01
52656;SHT85;35474;51.032;6.998;2023-04-25T05:36:07;7.09;82.88
52656;SHT85;35474;51.032;6.998;2023-04-25T05:38:34;7.24;82.50
52656;SHT85;35474;51.032;6.998;2023-04-25T05:41:01;7.27;82.08
52656;SHT85;35474;51.032;6.998;2023-04-25T05:43:28;7.24;82.15
52656;SHT85;35474;51.032;6.998;2023-04-25T05:45:54;7.22;82.04
52656;SHT85;35474;51.032;6.998;2023-04-25T05:48:21;7.20;82.06
52656;SHT85;35474;51.032;6.998;2023-04-25T05:50:48;7.26;82.06
52656;SHT85;35474;51.032;6.998;2023-04-25T05:53:14;7.20;82.18
52656;SHT85;35474;51.032;6.998;2023-04-25T05:55:41;7.35;81.67
52656;SHT85;35474;51.032;6.998;2023-04-25T05:58:07;7.42;81.17
52656;SHT85;35474;51.032;6.998;2023-04-25T06:00:34;7.40;80.93
52656;SHT85;35474;51.032;6.998;2023-04-25T06:03:00;7.54;81.05
52656;SHT85;35474;51.032;6.998;2023-04-25T06:05:27;7.44;80.77
52656;SHT85;35474;51.032;6.998;2023-04-25T06:07:54;7.54;80.76
52656;SHT85;35474;51.032;6.998;2023-04-25T06:10:21;7.60;79.89
52656;SHT85;35474;51.032;6.998;2023-04-25T06:12:48;7.68;79.57
52656;SHT85;35474;51.032;6.998;2023-04-25T06:15:15;7.84;79.09
52656;SHT85;35474;51.032;6.998;2023-04-25T06:17:54;7.92;78.58
52656;SHT85;35474;51.032;6.998;2023-04-25T06:20:22;7.96;76.46
52656;SHT85;35474;51.032;6.998;2023-04-25T06:22:51;8.07;76.17
52656;SHT85;35474;51.032;6.998;2023-04-25T06:25:18;8.09;76.05
52656;SHT85;35474;51.032;6.998;2023-04-25T06:27:44;8.26;75.66
52656;SHT85;35474;51.032;6.998;2023-04-25T06:32:34;8.07;74.50
52656;SHT85;35474;51.032;6.998;2023-04-25T06:35:01;8.18;74.76
52656;SHT85;35474;51.032;6.998;2023-04-25T06:37:27;8.42;74.21
52656;SHT85;35474;51.032;6.998;2023-04-25T06:39:54;8.73;73.31
52656;SHT85;35474;51.032;6.998;2023-04-25T06:42:20;8.75;72.84
52656;SHT85;35474;51.032;6.998;2023-04-25T06:44:46;8.71;71.95
52656;SHT85;35474;51.032;6.998;2023-04-25T06:47:13;8.64;72.67
52656;SHT85;35474;51.032;6.998;2023-04-25T06:49:40;8.81;72.42
52656;SHT85;35474;51.032;6.998;2023-04-25T06:52:07;8.87;71.39
52656;SHT85;35474;51.032;6.998;2023-04-25T06:54:33;8.57;71.65
52656;SHT85;35474;51.032;6.998;2023-04-25T06:57:00;8.64;72.20
52656;SHT85;35474;51.032;6.998;2023-04-25T06:59:27;8.53;72.32
52656;SHT85;35474;51.032;6.998;2023-04-25T07:01:53;8.65;72.19
52656;SHT85;35474;51.032;6.998;2023-04-25T07:04:19;9.01;71.25
52656;SHT85;35474;51.032;6.998;2023-04-25T07:06:47;8.91;70.54
52656;SHT85;35474;51.032;6.998;2023-04-25T07:09:14;9.00;70.49
52656;SHT85;35474;51.032;6.998;2023-04-25T07:11:40;9.12;69.99
52656;SHT85;35474;51.032;6.998;2023-04-25T07:14:07;9.10;70.12
52656;SHT85;35474;51.032;6.998;2023-04-25T07:16:33;9.04;70.70
52656;SHT85;35474;51.032;6.998;2023-04-25T07:19:00;8.50;73.17
52656;SHT85;35474;51.032;6.998;2023-04-25T07:21:27;8.40;74.05
52656;SHT85;35474;51.032;6.998;2023-04-25T07:23:54;8.67;73.70
52656;SHT85;35474;51.032;6.998;2023-04-25T07:26:20;8.44;73.01
52656;SHT85;35474;51.032;6.998;2023-04-25T07:28:47;8.43;73.71
52656;SHT85;35474;51.032;6.998;2023-04-25T07:31:17;8.09;73.33
52656;SHT85;35474;51.032;6.998;2023-04-25T07:33:46;8.37;73.66
52656;SHT85;35474;51.032;6.998;2023-04-25T07:36:13;8.39;72.80
52656;SHT85;35474;51.032;6.998;2023-04-25T07:38:41;8.29;71.37
52656;SHT85;35474;51.032;6.998;2023-04-25T07:41:07;8.68;71.54
52656;SHT85;35474;51.032;6.998;2023-04-25T07:43:34;9.10;69.86
52656;SHT85;35474;51.032;6.998;2023-04-25T07:46:00;9.43;68.19
52656;SHT85;35474;51.032;6.998;2023-04-25T07:48:27;9.18;67.94
52656;SHT85;35474;51.032;6.998;2023-04-25T07:50:53;9.14;66.01
52656;SHT85;35474;51.032;6.998;2023-04-25T07:53:20;9.39;65.67
52656;SHT85;35474;51.032;6.998;2023-04-25T07:55:47;9.56;65.14
52656;SHT85;35474;51.032;6.998;2023-04-25T07:58:13;10.25;64.88
52656;SHT85;35474;51.032;6.998;2023-04-25T08:00:41;10.62;64.14
52656;SHT85;35474;51.032;6.998;2023-04-25T08:03:09;10.65;62.51
52656;SHT85;35474;51.032;6.998;2023-04-25T08:05:36;9.59;65.29
52656;SHT85;35474;51.032;6.998;2023-04-25T08:08:03;9.97;65.37
52656;SHT85;35474;51.032;6.998;2023-04-25T08:10:30;9.80;64.60
52656;SHT85;35474;51.032;6.998;2023-04-25T08:12:57;9.10;64.92
52656;SHT85;35474;51.032;6.998;2023-04-25T08:15:24;9.00;64.70
52656;SHT85;35474;51.032;6.998;2023-04-25T08:17:51;9.10;65.26
52656;SHT85;35474;51.032;6.998;2023-04-25T08:20:18;9.25;64.74
52656;SHT85;35474;51.032;6.998;2023-04-25T08:22:44;9.50;64.42
52656;SHT85;35474;51.032;6.998;2023-04-25T08:25:11;9.70;63.49
52656;SHT85;35474;51.032;6.998;2023-04-25T08:27:37;9.56;63.25
52656;SHT85;35474;51.032;6.998;2023-04-25T08:30:04;9.54;63.42
52656;SHT85;35474;51.032;6.998;2023-04-25T08:32:31;9.14;63.84
52656;SHT85;35474;51.032;6.998;2023-04-25T08:34:59;9.22;64.56
52656;SHT85;35474;51.032;6.998;2023-04-25T08:37:26;9.26;64.74
52656;SHT85;35474;51.032;6.998;2023-04-25T08:39:52;9.10;64.60
52656;SHT85;35474;51.032;6.998;2023-04-25T08:42:19;9.14;64.24
52656;SHT85;35474;51.032;6.998;2023-04-25T08:44:48;9.11;64.20
52656;SHT85;35474;51.032;6.998;2023-04-25T08:47:15;9.05;64.63
52656;SHT85;35474;51.032;6.998;2023-04-25T08:49:44;9.15;64.15
52656;SHT85;35474;51.032;6.998;2023-04-25T08:52:12;9.21;65.12
52656;SHT85;35474;51.032;6.998;2023-04-25T08:54:43;8.97;66.23
52656;SHT85;35474;51.032;6.998;2023-04-25T08:57:15;8.67;67.11
52656;SHT85;35474;51.032;6.998;2023-04-25T08:59:41;8.75;67.61
52656;SHT85;35474;51.032;6.998;2023-04-25T09:02:12;8.91;66.89
52656;SHT85;35474;51.032;6.998;2023-04-25T09:04:44;9.29;65.89
52656;SHT85;35474;51.032;6.998;2023-04-25T09:07:11;9.31;64.49
52656;SHT85;35474;51.032;6.998;2023-04-25T09:09:37;9.63;63.44
52656;SHT85;35474;51.032;6.998;2023-04-25T09:12:04;9.87;59.85
52656;SHT85;35474;51.032;6.998;2023-04-25T09:14:31;9.91;57.69
52656;SHT85;35474;51.032;6.998;2023-04-25T09:17:02;10.72;55.60
52656;SHT85;35474;51.032;6.998;2023-04-25T09:19:32;10.11;56.88
52656;SHT85;35474;51.032;6.998;2023-04-25T09:22:04;10.66;56.80
52656;SHT85;35474;51.032;6.998;2023-04-25T09:24:44;10.22;57.14
52656;SHT85;35474;51.032;6.998;2023-04-25T09:27:19;9.43;60.14
52656;SHT85;35474;51.032;6.998;2023-04-25T09:29:48;9.70;60.85
52656;SHT85;35474;51.032;6.998;2023-04-25T09:32:23;10.22;59.70
52656;SHT85;35474;51.032;6.998;2023-04-25T09:34:54;10.35;59.43
52656;SHT85;35474;51.032;6.998;2023-04-25T09:37:23;10.39;59.35
52656;SHT85;35474;51.032;6.998;2023-04-25T09:39:52;10.48;59.31
52656;SHT85;35474;51.032;6.998;2023-04-25T09:42:24;12.23;53.78
52656;SHT85;35474;51.032;6.998;2023-04-25T09:44:55;12.91;49.43
52656;SHT85;35474;51.032;6.998;2023-04-25T09:47:23;12.67;48.22
52656;SHT85;35474;51.032;6.998;2023-04-25T09:49:51;11.10;50.15
52656;SHT85;35474;51.032;6.998;2023-04-25T09:52:22;10.45;52.83
52656;SHT85;35474;51.032;6.998;2023-04-25T09:54:51;10.15;55.02
52656;SHT85;35474;51.032;6.998;2023-04-25T09:57:22;9.87;55.76
52656;SHT85;35474;51.032;6.998;2023-04-25T09:59:51;9.91;54.22
52656;SHT85;35474;51.032;6.998;2023-04-25T10:02:19;10.10;54.60
52656;SHT85;35474;51.032;6.998;2023-04-25T10:04:49;10.07;54.37
52656;SHT85;35474;51.032;6.998;2023-04-25T10:07:19;10.81;53.10
52656;SHT85;35474;51.032;6.998;2023-04-25T10:09:48;11.10;51.15
52656;SHT85;35474;51.032;6.998;2023-04-25T10:12:16;11.07;50.61
52656;SHT85;35474;51.032;6.998;2023-04-25T10:14:44;11.32;51.59
52656;SHT85;35474;51.032;6.998;2023-04-25T10:17:12;11.11;51.02
52656;SHT85;35474;51.032;6.998;2023-04-25T10:19:38;10.89;52.12
52656;SHT85;35474;51.032;6.998;2023-04-25T10:22:11;11.34;50.88
52656;SHT85;35474;51.032;6.998;2023-04-25T10:24:40;13.91;46.80
52656;SHT85;35474;51.032;6.998;2023-04-25T10:27:08;12.63;46.38
52656;SHT85;35474;51.032;6.998;2023-04-25T10:29:35;11.17;50.92
52656;SHT85;35474;51.032;6.998;2023-04-25T10:32:02;10.65;52.62
52656;SHT85;35474;51.032;6.998;2023-04-25T10:34:42;10.73;53.32
52656;SHT85;35474;51.032;6.998;2023-04-25T10:37:13;10.52;53.33
52656;SHT85;35474;51.032;6.998;2023-04-25T10:39:40;10.22;53.89
52656;SHT85;35474;51.032;6.998;2023-04-25T10:42:07;10.41;55.13
52656;SHT85;35474;51.032;6.998;2023-04-25T10:44:36;10.21;54.20
52656;SHT85;35474;51.032;6.998;2023-04-25T10:47:06;10.14;53.99
52656;SHT85;35474;51.032;6.998;2023-04-25T10:52:11;10.28;54.07
52656;SHT85;35474;51.032;6.998;2023-04-25T10:54:47;10.60;53.52
52656;SHT85;35474;51.032;6.998;2023-04-25T10:57:36;10.53;52.23
52656;SHT85;35474;51.032;6.998;2023-04-25T11:00:08;10.99;50.20
52656;SHT85;35474;51.032;6.998;2023-04-25T11:02:42;11.47;50.44
52656;SHT85;35474;51.032;6.998;2023-04-25T11:05:33;10.77;50.76
52656;SHT85;35474;51.032;6.998;2023-04-25T11:08:16;10.99;51.05
52656;SHT85;35474;51.032;6.998;2023-04-25T11:11:03;11.10;51.42
52656;SHT85;35474;51.032;6.998;2023-04-25T11:13:29;13.80;45.27
52656;SHT85;35474;51.032;6.998;2023-04-25T11:15:56;13.67;43.54
52656;SHT85;35474;51.032;6.998;2023-04-25T11:18:40;11.88;48.06
52656;SHT85;35474;51.032;6.998;2023-04-25T11:21:07;12.57;46.63
52656;SHT85;35474;51.032;6.998;2023-04-25T11:23:34;11.82;48.24
52656;SHT85;35474;51.032;6.998;2023-04-25T11:26:00;11.69;49.00
52656;SHT85;35474;51.032;6.998;2023-04-25T11:28:27;12.85;46.55
52656;SHT85;35474;51.032;6.998;2023-04-25T11:30:54;14.14;42.46
52656;SHT85;35474;51.032;6.998;2023-04-25T11:33:24;13.33;42.59
52656;SHT85;35474;51.032;6.998;2023-04-25T11:35:53;13.78;41.44
52656;SHT85;35474;51.032;6.998;2023-04-25T11:38:25;13.93;41.39
52656;SHT85;35474;51.032;6.998;2023-04-25T11:40:54;12.86;43.52
52656;SHT85;35474;51.032;6.998;2023-04-25T11:43:21;13.60;43.29
52656;SHT85;35474;51.032;6.998;2023-04-25T11:45:48;13.47;41.96
52656;SHT85;35474;51.032;6.998;2023-04-25T11:48:17;13.95;41.97
52656;SHT85;35474;51.032;6.998;2023-04-25T11:50:51;13.81;42.01
52656;SHT85;35474;51.032;6.998;2023-04-25T11:53:19;14.77;38.74
52656;SHT85;35474;51.032;6.998;2023-04-25T11:55:46;15.70;37.94
52656;SHT85;35474;51.032;6.998;2023-04-25T11:58:12;16.64;35.40
52656;SHT85;35474;51.032;6.998;2023-04-25T12:00:41;15.94;36.45
52656;SHT85;35474;51.032;6.998;2023-04-25T12:03:16;15.82;35.95
52656;SHT85;35474;51.032;6.998;2023-04-25T12:05:45;13.74;39.88
52656;SHT85;35474;51.032;6.998;2023-04-25T12:08:13;14.43;38.93
52656;SHT85;35474;51.032;6.998;2023-04-25T12:10:41;13.27;40.86
52656;SHT85;35474;51.032;6.998;2023-04-25T12:13:45;15.10;38.78
52656;SHT85;35474;51.032;6.998;2023-04-25T12:16:04;17.14;35.77
52656;SHT85;35474;51.032;6.998;2023-04-25T12:18:31;16.27;35.84
52656;SHT85;35474;51.032;6.998;2023-04-25T12:21:02;13.74;38.86
52656;SHT85;35474;51.032;6.998;2023-04-25T12:23:30;13.87;39.31
52656;SHT85;35474;51.032;6.998;2023-04-25T12:25:57;14.32;38.44
52656;SHT85;35474;51.032;6.998;2023-04-25T12:28:24;14.22;39.30
52656;SHT85;35474;51.032;6.998;2023-04-25T12:30:53;13.43;40.11
52656;SHT85;35474;51.032;6.998;2023-04-25T12:33:31;12.09;43.95
52656;SHT85;35474;51.032;6.998;2023-04-25T12:36:03;12.63;43.42
52656;SHT85;35474;51.032;6.998;2023-04-25T12:38:36;12.02;44.28
52656;SHT85;35474;51.032;6.998;2023-04-25T12:41:07;11.69;45.95
52656;SHT85;35474;51.032;6.998;2023-04-25T12:43:34;11.72;46.50
52656;SHT85;35474;51.032;6.998;2023-04-25T12:46:01;11.42;47.22
52656;SHT85;35474;51.032;6.998;2023-04-25T12:48:27;10.97;48.63
52656;SHT85;35474;51.032;6.998;2023-04-25T12:50:54;10.56;49.17
52656;SHT85;35474;51.032;6.998;2023-04-25T12:53:21;10.99;49.72
52656;SHT85;35474;51.032;6.998;2023-04-25T12:55:49;11.10;49.88
52656;SHT85;35474;51.032;6.998;2023-04-25T12:58:17;10.96;51.35
52656;SHT85;35474;51.032;6.998;2023-04-25T13:00:44;11.23;50.21
52656;SHT85;35474;51.032;6.998;2023-04-25T13:03:11;11.31;48.59
52656;SHT85;35474;51.032;6.998;2023-04-25T13:05:39;11.79;48.08
52656;SHT85;35474;51.032;6.998;2023-04-25T13:08:06;11.70;46.94
52656;SHT85;35474;51.032;6.998;2023-04-25T13:10:33;11.58;47.05
52656;SHT85;35474;51.032;6.998;2023-04-25T13:13:02;12.38;46.67
52656;SHT85;35474;51.032;6.998;2023-04-25T13:15:28;13.19;45.15
52656;SHT85;35474;51.032;6.998;2023-04-25T13:17:56;13.64;44.87
52656;SHT85;35474;51.032;6.998;2023-04-25T13:20:23;13.67;44.24
52656;SHT85;35474;51.032;6.998;2023-04-25T13:22:49;13.40;44.58
52656;SHT85;35474;51.032;6.998;2023-04-25T13:25:16;14.33;46.38
52656;SHT85;35474;51.032;6.998;2023-04-25T13:27:42;15.56;45.54
52656;SHT85;35474;51.032;6.998;2023-04-25T13:30:10;16.40;43.76
52656;SHT85;35474;51.032;6.998;2023-04-25T13:32:37;17.17;42.93
52656;SHT85;35474;51.032;6.998;2023-04-25T13:35:05;16.95;42.78
52656;SHT85;35474;51.032;6.998;2023-04-25T13:37:36;16.25;44.88
52656;SHT85;35474;51.032;6.998;2023-04-25T13:40:05;16.35;44.42
52656;SHT85;35474;51.032;6.998;2023-04-25T13:42:35;17.30;43.27
52656;SHT85;35474;51.032;6.998;2023-04-25T13:45:03;16.03;43.01
52656;SHT85;35474;51.032;6.998;2023-04-25T13:47:29;16.47;43.00
52656;SHT85;35474;51.032;6.998;2023-04-25T13:49:56;17.00;41.83
52656;SHT85;35474;51.032;6.998;2023-04-25T13:52:23;16.30;44.44
52656;SHT85;35474;51.032;6.998;2023-04-25T13:54:51;17.24;41.57
52656;SHT85;35474;51.032;6.998;2023-04-25T13:57:18;16.59;39.89
52656;SHT85;35474;51.032;6.998;2023-04-25T13:59:45;16.24;40.83
52656;SHT85;35474;51.032;6.998;2023-04-25T14:02:12;15.63;42.87
52656;SHT85;35474;51.032;6.998;2023-04-25T14:04:39;14.77;43.82
52656;SHT85;35474;51.032;6.998;2023-04-25T14:07:06;13.46;46.58
52656;SHT85;35474;51.032;6.998;2023-04-25T14:09:32;11.74;48.51
52656;SHT85;35474;51.032;6.998;2023-04-25T14:11:59;12.14;48.89
52656;SHT85;35474;51.032;6.998;2023-04-25T14:14:26;12.34;48.03
52656;SHT85;35474;51.032;6.998;2023-04-25T14:16:53;12.20;49.22
52656;SHT85;35474;51.032;6.998;2023-04-25T14:19:20;12.69;48.57
52656;SHT85;35474;51.032;6.998;2023-04-25T14:21:47;13.29;47.16
52656;SHT85;35474;51.032;6.998;2023-04-25T14:24:14;13.83;46.52
52656;SHT85;35474;51.032;6.998;2023-04-25T14:26:41;14.62;44.16
52656;SHT85;35474;51.032;6.998;2023-04-25T14:29:08;15.35;42.46
52656;SHT85;35474;51.032;6.998;2023-04-25T14:31:38;14.81;42.68
52656;SHT85;35474;51.032;6.998;2023-04-25T14:34:05;14.15;40.61
52656;SHT85;35474;51.032;6.998;2023-04-25T14:36:32;13.13;41.16
52656;SHT85;35474;51.032;6.998;2023-04-25T14:38:59;12.67;42.26
52656;SHT85;35474;51.032;6.998;2023-04-25T14:41:26;12.48;42.77
52656;SHT85;35474;51.032;6.998;2023-04-25T14:43:53;12.82;42.24
52656;SHT85;35474;51.032;6.998;2023-04-25T14:46:20;12.82;41.99
52656;SHT85;35474;51.032;6.998;2023-04-25T14:48:48;13.39;42.50
52656;SHT85;35474;51.032;6.998;2023-04-25T14:51:15;14.05;41.31
52656;SHT85;35474;51.032;6.998;2023-04-25T14:53:42;15.34;39.86
52656;SHT85;35474;51.032;6.998;2023-04-25T14:56:09;15.65;39.70
52656;SHT85;35474;51.032;6.998;2023-04-25T14:58:36;15.14;39.59
52656;SHT85;35474;51.032;6.998;2023-04-25T15:01:03;15.42;39.89
52656;SHT85;35474;51.032;6.998;2023-04-25T15:03:30;15.73;38.81
52656;SHT85;35474;51.032;6.998;2023-04-25T15:05:57;15.63;39.86
52656;SHT85;35474;51.032;6.998;2023-04-25T15:08:24;15.59;40.43
52656;SHT85;35474;51.032;6.998;2023-04-25T15:10:50;16.37;39.08
52656;SHT85;35474;51.032;6.998;2023-04-25T15:13:17;15.82;40.18
52656;SHT85;35474;51.032;6.998;2023-04-25T15:15:45;15.61;40.89
52656;SHT85;35474;51.032;6.998;2023-04-25T15:18:17;14.91;41.44
52656;SHT85;35474;51.032;6.998;2023-04-25T15:20:48;15.11;41.78
52656;SHT85;35474;51.032;6.998;2023-04-25T15:23:16;15.76;40.40
52656;SHT85;35474;51.032;6.998;2023-04-25T15:25:44;15.08;42.04
52656;SHT85;35474;51.032;6.998;2023-04-25T15:28:11;13.12;47.33
52656;SHT85;35474;51.032;6.998;2023-04-25T15:30:41;13.50;47.28
52656;SHT85;35474;51.032;6.998;2023-04-25T15:33:08;13.40;47.99
52656;SHT85;35474;51.032;6.998;2023-04-25T15:35:34;13.40;47.64
52656;SHT85;35474;51.032;6.998;2023-04-25T15:38:01;13.16;48.38
52656;SHT85;35474;51.032;6.998;2023-04-25T15:40:27;13.40;48.51
52656;SHT85;35474;51.032;6.998;2023-04-25T15:42:54;13.06;46.37
52656;SHT85;35474;51.032;6.998;2023-04-25T15:45:21;12.46;46.94
52656;SHT85;35474;51.032;6.998;2023-04-25T15:47:51;12.64;46.51